createdAt,value
2022-08-30T00:01:14.252Z,58.75
2022-08-30T00:03:46.752Z,59.02
2022-08-30T00:06:17.745Z,58.78
2022-08-30T00:08:45.790Z,58.40
2022-08-30T00:11:17.919Z,58.53
2022-08-30T00:13:47.540Z,58.64
2022-08-30T00:16:15.278Z,58.70
2022-08-30T00:18:44.011Z,58.90
2022-08-30T00:21:11.929Z,58.85
2022-08-30T00:23:40.441Z,58.94
2022-08-30T00:26:08.215Z,58.93
2022-08-30T00:28:36.242Z,58.90
2022-08-30T00:31:05.001Z,59.20
2022-08-30T00:33:32.295Z,59.18
2022-08-30T00:35:59.639Z,59.25
2022-08-30T00:38:26.820Z,59.40
2022-08-30T00:40:54.091Z,59.78
2022-08-30T00:43:30.569Z,59.41
2022-08-30T00:45:59.248Z,59.30
2022-08-30T00:48:26.596Z,59.45
2022-08-30T00:51:00.884Z,59.29
2022-08-30T00:53:34.906Z,59.32
2022-08-30T00:56:03.197Z,59.32
2022-08-30T00:58:36.836Z,59.17
2022-08-30T01:01:06.826Z,59.02
2022-08-30T01:03:37.364Z,59.10
2022-08-30T01:06:07.623Z,59.45
2022-08-30T01:08:35.639Z,59.33
2022-08-30T01:11:04.360Z,59.46
2022-08-30T01:13:34.178Z,59.44
2022-08-30T01:16:03.079Z,59.74
2022-08-30T01:18:32.197Z,59.92
2022-08-30T01:21:15.645Z,59.80
2022-08-30T01:23:46.476Z,59.51
2022-08-30T01:29:11.561Z,59.28
2022-08-30T01:31:38.836Z,59.50
2022-08-30T01:34:08.035Z,59.47
2022-08-30T01:36:45.040Z,59.33
2022-08-30T01:39:17.931Z,59.29
2022-08-30T01:41:45.773Z,59.09
2022-08-30T01:44:14.686Z,59.59
2022-08-30T01:46:46.795Z,59.63
2022-08-30T01:49:27.299Z,59.73
2022-08-30T01:52:00.595Z,59.68
2022-08-30T01:54:37.924Z,59.71
2022-08-30T01:57:08.266Z,59.75
2022-08-30T01:59:36.827Z,59.76
2022-08-30T02:02:06.017Z,60.03
2022-08-30T02:04:33.450Z,60.16
2022-08-30T02:07:00.740Z,60.03
2022-08-30T02:09:28.036Z,60.25
2022-08-30T02:11:55.161Z,60.21
2022-08-30T02:14:22.284Z,60.36
2022-08-30T02:16:49.968Z,60.52
2022-08-30T02:19:18.170Z,60.59
2022-08-30T02:21:45.286Z,60.74
2022-08-30T02:24:12.583Z,60.63
2022-08-30T02:26:39.735Z,60.74
2022-08-30T02:29:06.937Z,61.10
2022-08-30T02:31:34.693Z,60.97
2022-08-30T02:34:02.246Z,60.68
2022-08-30T02:36:29.367Z,60.64
2022-08-30T02:38:56.681Z,60.67
2022-08-30T02:41:24.320Z,60.43
2022-08-30T02:43:52.317Z,60.61
2022-08-30T02:46:19.830Z,60.32
2022-08-30T02:48:46.974Z,60.36
2022-08-30T02:51:14.665Z,60.67
2022-08-30T02:53:44.159Z,60.52
2022-08-30T02:56:13.954Z,60.43
2022-08-30T02:58:42.967Z,60.21
2022-08-30T03:01:13.803Z,60.20
2022-08-30T03:03:43.479Z,60.33
2022-08-30T03:06:10.838Z,60.39
2022-08-30T03:08:38.253Z,59.41
2022-08-30T03:11:06.285Z,59.46
2022-08-30T03:13:33.377Z,59.94
2022-08-30T03:16:00.538Z,59.98
2022-08-30T03:18:28.402Z,59.89
2022-08-30T03:20:55.596Z,60.15
2022-08-30T03:23:23.929Z,59.96
2022-08-30T03:25:53.521Z,60.24
2022-08-30T03:28:21.006Z,60.26
2022-08-30T03:30:48.511Z,60.25
2022-08-30T03:33:16.065Z,60.22
2022-08-30T03:35:45.753Z,60.23
2022-08-30T03:38:12.903Z,60.12
2022-08-30T03:40:40.076Z,60.07
2022-08-30T03:43:07.616Z,60.19
2022-08-30T03:45:35.807Z,60.29
2022-08-30T03:48:03.635Z,60.36
2022-08-30T03:50:31.417Z,60.23
2022-08-30T03:53:01.095Z,60.01
2022-08-30T03:55:29.997Z,60.20
2022-08-30T03:57:57.736Z,60.14
2022-08-30T04:00:25.984Z,60.42
2022-08-30T04:02:53.073Z,60.67
2022-08-30T04:05:20.809Z,60.27
2022-08-30T04:07:48.024Z,60.39
2022-08-30T04:10:15.140Z,60.69
2022-08-30T04:12:46.179Z,60.45
2022-08-30T04:15:18.467Z,60.52
2022-08-30T04:17:46.515Z,60.64
2022-08-30T04:20:13.723Z,60.83
2022-08-30T04:22:42.267Z,60.84
2022-08-30T04:25:15.267Z,60.73
2022-08-30T04:27:45.398Z,60.83
2022-08-30T04:30:14.880Z,60.64
2022-08-30T04:32:42.498Z,60.25
2022-08-30T04:35:10.584Z,60.11
2022-08-30T04:37:39.409Z,59.89
2022-08-30T04:40:07.790Z,59.78
2022-08-30T04:42:36.070Z,59.74
2022-08-30T04:45:08.722Z,59.52
2022-08-30T04:47:36.112Z,59.62
2022-08-30T04:50:03.782Z,59.54
2022-08-30T04:52:30.889Z,59.36
2022-08-30T04:54:59.461Z,59.17
2022-08-30T04:57:28.302Z,59.09
2022-08-30T04:59:55.551Z,59.13
2022-08-30T05:02:23.077Z,58.95
2022-08-30T05:05:09.299Z,58.84
2022-08-30T05:07:36.657Z,58.70
2022-08-30T05:10:09.138Z,58.49
2022-08-30T05:12:38.729Z,58.24
2022-08-30T05:15:07.179Z,58.41
2022-08-30T05:17:34.319Z,57.96
2022-08-30T05:20:02.538Z,57.84
2022-08-30T05:22:29.729Z,57.77
2022-08-30T05:24:56.943Z,57.83
2022-08-30T05:27:24.387Z,57.75
2022-08-30T05:29:51.586Z,57.46
2022-08-30T05:32:21.736Z,56.91
2022-08-30T05:34:51.335Z,56.29
2022-08-30T05:37:18.641Z,55.80
2022-08-30T05:39:51.611Z,55.10
2022-08-30T05:42:19.809Z,54.68
2022-08-30T05:44:52.156Z,54.19
2022-08-30T05:47:20.599Z,53.81
2022-08-30T05:49:48.427Z,53.77
2022-08-30T05:52:18.142Z,53.44
2022-08-30T05:54:46.736Z,52.78
2022-08-30T05:57:13.894Z,52.54
2022-08-30T05:59:41.216Z,52.27
2022-08-30T06:02:08.679Z,52.31
2022-08-30T06:04:38.965Z,51.97
2022-08-30T06:07:07.311Z,51.21
2022-08-30T06:09:35.140Z,51.24
2022-08-30T06:12:02.680Z,50.72
2022-08-30T06:14:29.811Z,50.37
2022-08-30T06:16:58.600Z,50.05
2022-08-30T06:19:25.705Z,49.63
2022-08-30T06:21:52.959Z,48.94
2022-08-30T06:24:27.802Z,48.70
2022-08-30T06:27:03.338Z,48.89
2022-08-30T06:29:30.514Z,48.55
2022-08-30T06:31:59.073Z,48.54
2022-08-30T06:34:27.163Z,48.35
2022-08-30T06:36:54.454Z,47.79
2022-08-30T06:39:21.687Z,47.35
2022-08-30T06:41:50.282Z,47.55
2022-08-30T06:44:33.457Z,46.87
2022-08-30T06:47:00.753Z,47.19
2022-08-30T06:49:27.977Z,47.39
2022-08-30T06:51:55.292Z,46.85
2022-08-30T06:54:22.881Z,46.00
2022-08-30T06:56:58.213Z,45.91
2022-08-30T06:59:27.172Z,45.44
2022-08-30T07:01:55.727Z,45.09
2022-08-30T07:04:23.509Z,45.11
2022-08-30T07:06:50.651Z,44.76
2022-08-30T07:09:19.152Z,44.42
2022-08-30T07:11:46.427Z,44.40
2022-08-30T07:14:13.566Z,44.58
2022-08-30T07:16:40.700Z,44.38
2022-08-30T07:19:07.849Z,44.01
2022-08-30T07:21:45.758Z,43.95
2022-08-30T07:24:13.677Z,43.63
2022-08-30T07:26:49.203Z,43.38
2022-08-30T07:29:18.333Z,43.37
2022-08-30T07:31:46.093Z,43.66
2022-08-30T07:34:13.396Z,43.51
2022-08-30T07:36:40.512Z,43.12
2022-08-30T07:39:08.381Z,43.47
2022-08-30T07:41:39.044Z,43.10
2022-08-30T07:44:09.624Z,42.94
2022-08-30T07:46:39.406Z,42.74
2022-08-30T07:49:11.006Z,42.50
2022-08-30T07:51:39.954Z,41.97
2022-08-30T07:54:07.147Z,41.59
2022-08-30T07:56:35.231Z,41.83
2022-08-30T07:59:02.416Z,42.12
2022-08-30T08:01:29.667Z,41.92
2022-08-30T08:03:56.973Z,41.78
2022-08-30T08:06:25.044Z,41.33
2022-08-30T08:08:54.448Z,41.26
2022-08-30T08:11:28.356Z,41.61
2022-08-30T08:13:57.833Z,41.11
2022-08-30T08:16:29.203Z,41.24
2022-08-30T08:18:56.815Z,40.68
2022-08-30T08:21:25.712Z,40.34
2022-08-30T08:23:53.253Z,40.62
2022-08-30T08:26:22.108Z,40.50
2022-08-30T08:28:49.692Z,40.10
2022-08-30T08:31:25.455Z,39.76
2022-08-30T08:36:26.821Z,40.08
2022-08-30T08:38:54.241Z,40.04
2022-08-30T08:41:39.450Z,39.59
2022-08-30T08:44:34.821Z,39.38
2022-08-30T08:47:41.883Z,39.34
2022-08-30T08:50:18.884Z,39.97
2022-08-30T08:53:20.527Z,39.58
2022-08-30T08:55:58.665Z,39.98
2022-08-30T08:58:35.147Z,40.04
2022-08-30T09:01:02.270Z,39.71
2022-08-30T09:03:30.157Z,39.70
2022-08-30T09:05:59.119Z,39.21
2022-08-30T09:08:27.370Z,38.81
2022-08-30T09:11:09.544Z,38.92
2022-08-30T09:13:36.843Z,38.99
2022-08-30T09:16:05.591Z,38.72
2022-08-30T09:18:50.235Z,38.43
2022-08-30T09:21:26.621Z,38.43
2022-08-30T09:24:01.976Z,37.66
2022-08-30T09:26:37.529Z,37.80
2022-08-30T09:29:06.067Z,38.31
2022-08-30T09:31:52.881Z,38.63
2022-08-30T09:34:33.517Z,38.20
2022-08-30T09:37:00.919Z,38.04
2022-08-30T09:39:37.385Z,37.81
2022-08-30T09:42:25.454Z,37.71
2022-08-30T09:45:10.300Z,37.48
2022-08-30T09:47:43.448Z,37.63
2022-08-30T09:50:34.273Z,37.84
2022-08-30T09:53:23.428Z,38.25
2022-08-30T09:56:33.188Z,38.36
2022-08-30T09:59:36.435Z,37.90
2022-08-30T10:02:48.149Z,37.29
2022-08-30T10:05:39.581Z,37.31
2022-08-30T10:08:19.976Z,37.58
2022-08-30T10:11:09.203Z,36.57
2022-08-30T10:13:44.273Z,36.43
2022-08-30T10:16:49.428Z,36.17
2022-08-30T10:20:04.191Z,36.71
2022-08-30T10:22:44.090Z,36.99
2022-08-30T10:25:23.729Z,37.06
2022-08-30T10:28:17.669Z,37.81
2022-08-30T10:30:57.519Z,36.97
2022-08-30T10:33:38.919Z,36.46
2022-08-30T10:36:12.258Z,36.23
2022-08-30T10:38:52.603Z,36.00
2022-08-30T10:41:31.527Z,36.26
2022-08-30T10:44:07.267Z,35.27
2022-08-30T10:47:07.069Z,34.45
2022-08-30T10:49:49.542Z,33.47
2022-08-30T10:52:37.455Z,33.81
2022-08-30T10:55:26.838Z,32.67
2022-08-30T10:57:54.146Z,32.69
2022-08-30T11:00:37.963Z,32.34
2022-08-30T11:03:39.780Z,32.34
2022-08-30T11:06:54.861Z,32.32
2022-08-30T11:09:51.646Z,32.96
2022-08-30T11:12:49.961Z,32.14
2022-08-30T11:15:24.739Z,31.74
2022-08-30T11:18:11.639Z,31.18
2022-08-30T11:20:42.799Z,31.25
2022-08-30T11:23:40.037Z,31.34
2022-08-30T11:26:12.153Z,30.60
2022-08-30T11:28:47.377Z,30.13
2022-08-30T11:31:15.819Z,30.57
2022-08-30T11:33:49.004Z,30.04
2022-08-30T11:36:37.920Z,29.50
2022-08-30T11:39:11.072Z,28.88
2022-08-30T11:41:47.740Z,28.57
2022-08-30T11:44:21.815Z,28.14
2022-08-30T11:46:55.723Z,28.24
2022-08-30T11:49:27.310Z,28.52
2022-08-30T11:52:41.514Z,28.44
2022-08-30T11:55:27.110Z,27.00
2022-08-30T11:58:34.316Z,27.86
2022-08-30T12:01:49.936Z,28.61
2022-08-30T12:04:19.842Z,24.94
2022-08-30T12:07:00.342Z,23.31
2022-08-30T12:09:28.200Z,21.97
2022-08-30T12:12:37.900Z,20.48
2022-08-30T12:15:05.461Z,19.57
2022-08-30T12:18:30.617Z,18.99
2022-08-30T12:21:45.007Z,18.79
2022-08-30T12:24:26.478Z,19.33
2022-08-30T12:26:54.758Z,19.51
2022-08-30T12:29:28.838Z,20.82
2022-08-30T12:32:08.223Z,20.69
2022-08-30T12:34:41.572Z,22.71
2022-08-30T12:37:21.327Z,24.12
2022-08-30T12:39:53.835Z,27.18
2022-08-30T12:42:30.746Z,28.16
2022-08-30T12:45:06.246Z,28.12
2022-08-30T12:47:51.704Z,26.62
2022-08-30T12:50:25.242Z,26.67
2022-08-30T12:53:14.116Z,25.22
2022-08-30T12:56:01.797Z,22.77
2022-08-30T12:58:43.771Z,24.54
2022-08-30T13:01:32.519Z,25.72
2022-08-30T13:04:13.374Z,27.02
2022-08-30T13:06:50.794Z,28.83
2022-08-30T13:09:42.626Z,30.18
2022-08-30T13:12:26.357Z,31.38
2022-08-30T13:14:53.893Z,31.52
2022-08-30T13:17:29.309Z,32.09
2022-08-30T13:20:07.171Z,32.27
2022-08-30T13:22:40.450Z,32.34
2022-08-30T13:25:18.508Z,32.63
2022-08-30T13:28:02.284Z,32.93
2022-08-30T13:30:35.674Z,33.10
2022-08-30T13:33:06.210Z,33.25
2022-08-30T13:35:33.775Z,33.44
2022-08-30T13:38:04.479Z,32.80
2022-08-30T13:40:31.730Z,32.36
2022-08-30T13:43:03.619Z,30.81
2022-08-30T13:45:46.472Z,29.68
2022-08-30T13:48:17.287Z,28.16
2022-08-30T13:50:44.779Z,25.16
2022-08-30T13:53:12.269Z,22.93
2022-08-30T13:55:41.747Z,21.85
2022-08-30T13:58:10.623Z,21.54
2022-08-30T14:00:41.029Z,23.16
2022-08-30T14:03:08.294Z,24.91
2022-08-30T14:08:49.863Z,25.04
2022-08-30T14:11:22.516Z,23.68
2022-08-30T14:16:44.206Z,20.90
2022-08-30T14:19:14.424Z,20.84
2022-08-30T14:21:43.085Z,20.25
2022-08-30T14:24:12.800Z,20.20
2022-08-30T14:26:48.549Z,19.58
2022-08-30T14:29:24.808Z,19.77
2022-08-30T14:31:52.834Z,20.23
2022-08-30T14:34:20.070Z,19.36
2022-08-30T14:36:47.338Z,19.37
2022-08-30T14:39:20.056Z,19.15
2022-08-30T14:41:52.559Z,18.64
2022-08-30T14:44:22.374Z,18.46
2022-08-30T14:46:51.032Z,18.25
2022-08-30T14:49:20.430Z,18.08
2022-08-30T14:51:48.555Z,17.94
2022-08-30T14:54:25.707Z,17.97
2022-08-30T14:56:53.626Z,17.85
2022-08-30T14:59:21.582Z,17.70
2022-08-30T15:01:48.715Z,17.67
2022-08-30T15:04:16.854Z,17.84
2022-08-30T15:06:47.371Z,18.04
2022-08-30T15:09:23.252Z,18.41
2022-08-30T15:11:58.743Z,18.55
2022-08-30T15:14:26.465Z,18.30
2022-08-30T15:16:58.269Z,18.15
2022-08-30T15:19:26.291Z,17.47
2022-08-30T15:21:53.464Z,17.36
2022-08-30T15:24:27.658Z,17.74
2022-08-30T15:27:01.022Z,18.21
2022-08-30T15:29:31.710Z,18.64
2022-08-30T15:32:01.045Z,19.06
2022-08-30T15:34:28.984Z,20.69
2022-08-30T15:36:57.283Z,20.18
2022-08-30T15:39:24.798Z,20.78
2022-08-30T15:41:55.717Z,19.98
2022-08-30T15:44:24.461Z,19.64
2022-08-30T15:46:51.760Z,20.18
2022-08-30T15:49:23.851Z,21.45
2022-08-30T15:51:53.854Z,23.61
2022-08-30T15:54:23.660Z,25.30
2022-08-30T15:56:59.215Z,26.05
2022-08-30T15:59:31.530Z,26.66
2022-08-30T16:01:59.332Z,27.02
2022-08-30T16:04:26.748Z,27.99
2022-08-30T16:06:54.281Z,28.83
2022-08-30T16:09:21.774Z,28.17
2022-08-30T16:11:50.655Z,26.58
2022-08-30T16:14:18.125Z,24.90
2022-08-30T16:16:46.486Z,24.02
2022-08-30T16:19:14.213Z,23.93
2022-08-30T16:21:43.360Z,24.34
2022-08-30T16:24:13.620Z,24.06
2022-08-30T16:26:43.210Z,24.54
2022-08-30T16:29:14.662Z,24.61
2022-08-30T16:31:45.922Z,24.49
2022-08-30T16:34:17.999Z,25.75
2022-08-30T16:36:46.301Z,26.64
2022-08-30T16:39:13.930Z,27.61
2022-08-30T16:41:44.322Z,28.36
2022-08-30T16:44:12.697Z,29.48
2022-08-30T16:46:41.277Z,29.77
2022-08-30T16:49:10.482Z,29.91
2022-08-30T16:51:38.345Z,30.63
2022-08-30T16:54:08.613Z,29.42
2022-08-30T16:56:37.590Z,28.50
2022-08-30T16:59:10.971Z,27.78
2022-08-30T17:01:39.078Z,28.14
2022-08-30T17:04:08.270Z,28.88
2022-08-30T17:06:36.600Z,29.71
2022-08-30T17:09:06.432Z,30.87
2022-08-30T17:11:36.435Z,31.94
2022-08-30T17:14:04.973Z,33.02
2022-08-30T17:16:34.257Z,33.62
2022-08-30T17:19:04.361Z,34.29
2022-08-30T17:21:32.700Z,34.61
2022-08-30T17:24:02.316Z,34.92
2022-08-30T17:26:36.576Z,35.42
2022-08-30T17:29:05.314Z,35.57
2022-08-30T17:31:34.582Z,35.82
2022-08-30T17:34:04.138Z,35.89
2022-08-30T17:36:35.593Z,36.31
2022-08-30T17:39:11.379Z,36.57
2022-08-30T17:41:45.350Z,37.17
2022-08-30T17:44:23.294Z,37.55
2022-08-30T17:46:53.787Z,37.93
2022-08-30T17:49:22.208Z,38.15
2022-08-30T17:51:56.101Z,38.29
2022-08-30T17:54:25.822Z,38.53
2022-08-30T17:56:54.536Z,38.46
2022-08-30T17:59:25.043Z,38.82
2022-08-30T18:01:55.398Z,38.64
2022-08-30T18:04:24.922Z,38.85
2022-08-30T18:06:53.020Z,39.20
2022-08-30T18:09:20.445Z,39.26
2022-08-30T18:11:48.344Z,39.28
2022-08-30T18:14:15.985Z,39.66
2022-08-30T18:16:49.921Z,39.61
2022-08-30T18:19:23.505Z,39.82
2022-08-30T18:21:50.844Z,40.23
2022-08-30T18:24:18.353Z,40.53
2022-08-30T18:26:46.583Z,40.39
2022-08-30T18:29:13.984Z,40.93
2022-08-30T18:31:41.438Z,41.29
2022-08-30T18:34:12.376Z,41.35
2022-08-30T18:36:41.447Z,41.56
2022-08-30T18:39:09.031Z,41.66
2022-08-30T18:41:42.940Z,41.78
2022-08-30T18:44:26.776Z,41.76
2022-08-30T18:46:56.100Z,42.11
2022-08-30T18:49:28.130Z,41.91
2022-08-30T18:51:55.380Z,42.29
2022-08-30T18:54:23.589Z,42.27
2022-08-30T18:56:50.771Z,42.76
2022-08-30T18:59:19.635Z,43.10
2022-08-30T19:01:48.562Z,43.26
2022-08-30T19:04:29.571Z,43.57
2022-08-30T19:06:59.551Z,44.23
2022-08-30T19:09:26.866Z,44.06
2022-08-30T19:11:55.007Z,44.04
2022-08-30T19:14:22.318Z,44.11
2022-08-30T19:16:49.478Z,44.08
2022-08-30T19:19:16.871Z,44.26
2022-08-30T19:21:44.016Z,44.39
2022-08-30T19:24:12.030Z,44.74
2022-08-30T19:26:40.584Z,45.00
2022-08-30T19:29:07.730Z,45.07
2022-08-30T19:31:35.290Z,45.23
2022-08-30T19:34:02.646Z,46.40
2022-08-30T19:36:30.677Z,46.34
2022-08-30T19:38:57.837Z,46.34
2022-08-30T19:41:25.073Z,46.67
2022-08-30T19:43:52.246Z,47.33
2022-08-30T19:46:19.360Z,47.42
2022-08-30T19:48:46.568Z,47.42
2022-08-30T19:51:15.254Z,48.17
2022-08-30T19:53:43.035Z,48.44
2022-08-30T19:56:10.377Z,48.33
2022-08-30T19:58:37.621Z,48.44
2022-08-30T20:01:12.768Z,49.15
2022-08-30T20:03:53.066Z,48.76
2022-08-30T20:06:23.956Z,48.87
2022-08-30T20:08:51.118Z,49.23
2022-08-30T20:11:23.778Z,49.34
2022-08-30T20:13:50.915Z,49.22
2022-08-30T20:16:18.576Z,49.34
2022-08-30T20:18:48.022Z,49.27
2022-08-30T20:21:15.838Z,49.20
2022-08-30T20:23:43.785Z,49.50
2022-08-30T20:26:12.918Z,49.29
2022-08-30T20:28:40.921Z,49.54
2022-08-30T20:31:10.908Z,50.08
2022-08-30T20:33:39.072Z,50.30
2022-08-30T20:36:09.868Z,50.31
2022-08-30T20:38:38.066Z,50.30
2022-08-30T20:41:16.743Z,50.70
2022-08-30T20:43:45.493Z,50.58
2022-08-30T20:46:21.787Z,50.50
2022-08-30T20:48:49.005Z,50.59
2022-08-30T20:51:20.634Z,50.58
2022-08-30T20:53:47.720Z,51.00
2022-08-30T20:56:21.679Z,51.14
2022-08-30T20:58:50.333Z,50.72
2022-08-30T21:01:17.902Z,51.00
2022-08-30T21:03:49.056Z,51.28
2022-08-30T21:06:17.590Z,51.23
2022-08-30T21:08:44.785Z,51.18
2022-08-30T21:11:12.348Z,50.99
2022-08-30T21:13:39.880Z,51.04
2022-08-30T21:16:07.977Z,51.18
2022-08-30T21:18:36.383Z,50.59
2022-08-30T21:21:22.158Z,51.19
2022-08-30T21:23:50.194Z,51.77
2022-08-30T21:26:19.018Z,51.56
2022-08-30T21:28:52.190Z,51.71
2022-08-30T21:31:23.984Z,52.10
2022-08-30T21:33:53.680Z,51.89
2022-08-30T21:36:40.579Z,52.40
2022-08-30T21:39:08.211Z,52.07
2022-08-30T21:41:37.627Z,52.13
2022-08-30T21:44:08.918Z,52.59
2022-08-30T21:46:38.522Z,52.65
2022-08-30T21:49:09.655Z,52.51
2022-08-30T21:51:42.091Z,52.74
2022-08-30T21:54:11.863Z,52.62
2022-08-30T21:56:43.566Z,52.36
2022-08-30T21:59:11.576Z,52.44
2022-08-30T22:01:40.365Z,53.35
2022-08-30T22:04:10.250Z,53.41
2022-08-30T22:06:40.665Z,53.37
2022-08-30T22:09:13.979Z,53.36
2022-08-30T22:11:43.557Z,53.36
2022-08-30T22:14:13.050Z,53.61
2022-08-30T22:16:41.539Z,53.89
2022-08-30T22:19:09.029Z,54.10
2022-08-30T22:21:38.310Z,53.80
2022-08-30T22:24:05.955Z,53.59
2022-08-30T22:26:34.339Z,53.99
2022-08-30T22:29:02.805Z,54.01
2022-08-30T22:31:29.962Z,54.48
2022-08-30T22:33:57.123Z,54.28
2022-08-30T22:36:32.409Z,54.30
2022-08-30T22:39:01.792Z,54.46
2022-08-30T22:41:34.045Z,54.24
2022-08-30T22:44:02.305Z,54.95
2022-08-30T22:46:34.615Z,55.13
2022-08-30T22:49:09.078Z,55.11
2022-08-30T22:51:37.199Z,54.99
2022-08-30T22:54:06.336Z,55.04
2022-08-30T22:56:36.557Z,55.44
2022-08-30T22:59:05.834Z,55.24
2022-08-30T23:01:39.772Z,55.48
2022-08-30T23:04:09.007Z,55.35
2022-08-30T23:06:36.502Z,55.32
2022-08-30T23:09:05.370Z,55.58
2022-08-30T23:11:33.448Z,55.87
2022-08-30T23:14:02.287Z,55.98
2022-08-30T23:16:29.867Z,56.18
2022-08-30T23:18:56.980Z,56.11
2022-08-30T23:21:28.245Z,56.04
2022-08-30T23:24:15.388Z,56.03
2022-08-30T23:27:03.379Z,56.54
2022-08-30T23:29:49.443Z,56.81
2022-08-30T23:32:35.932Z,57.16
2022-08-30T23:35:29.495Z,57.37
2022-08-30T23:38:22.466Z,57.42
2022-08-30T23:41:08.264Z,57.60
2022-08-30T23:43:54.849Z,57.90
2022-08-30T23:46:41.147Z,58.04
2022-08-30T23:49:27.547Z,57.91
2022-08-30T23:52:13.564Z,58.08
2022-08-30T23:54:58.898Z,58.10
2022-08-30T23:57:45.866Z,58.26
